Terminal Aerodrome Forecast
Issued by NWS Charleston, WV

Current Version | Previous Version | Graphics & Text | Print | Product List | Glossary On
Versions: 1 2 3 4 5 6 7 8 9 10 11 12 13 14 15 16 17 18 19 20 21 22 23 24 25 26
000
FTUS41 KRLX 252200 AAB
TAFEKN
TAF AMD
KEKN 252211Z 2522/2618 20008KT P6SM SCT070
     FM260000 19007KT P6SM SCT070
     FM260300 VRB03KT P6SM BKN070
     FM260600 00000KT P6SM BKN035
     FM261500 22007KT P6SM BKN035=

USA.gov is the U.S. government's official web portal to all federal, state and local government web resources and services.